createdAt,value
2023-02-11T00:01:35.007Z,26.27
2023-02-11T00:06:01.407Z,23.87
2023-02-11T00:10:17.918Z,25.45
2023-02-11T00:14:34.146Z,24.25
2023-02-11T00:18:53.247Z,25.15
2023-02-11T00:23:09.974Z,24.92
2023-02-11T00:27:26.289Z,25.05
2023-02-11T00:31:42.791Z,24.05
2023-02-11T00:35:59.151Z,25.10
2023-02-11T00:40:16.345Z,24.00
2023-02-11T00:44:32.689Z,23.65
2023-02-11T00:48:49.344Z,24.37
2023-02-11T00:53:05.694Z,24.52
2023-02-11T00:57:22.041Z,25.75
2023-02-11T01:01:38.478Z,25.70
2023-02-11T01:05:55.005Z,25.67
2023-02-11T01:10:11.775Z,24.92
2023-02-11T01:14:28.048Z,25.00
2023-02-11T01:18:44.681Z,25.80
2023-02-11T01:23:01.073Z,26.92
2023-02-11T01:27:17.542Z,24.73
2023-02-11T01:31:33.972Z,24.92
2023-02-11T01:35:51.028Z,26.02
2023-02-11T01:40:11.557Z,25.98
2023-02-11T01:44:34.240Z,26.75
2023-02-11T01:49:18.398Z,25.20
2023-02-11T01:53:54.015Z,24.45
2023-02-11T01:58:10.399Z,25.62
2023-02-11T02:02:57.217Z,24.35
2023-02-11T02:07:20.696Z,25.67
2023-02-11T02:11:37.489Z,24.30
2023-02-11T02:15:56.048Z,26.17
2023-02-11T02:20:50.652Z,27.23
2023-02-11T02:25:40.136Z,26.95
2023-02-11T02:30:08.808Z,26.40
2023-02-11T02:34:40.361Z,25.65
2023-02-11T02:39:04.497Z,25.88
2023-02-11T02:43:21.872Z,24.73
2023-02-11T02:47:38.284Z,25.02
2023-02-11T02:52:07.312Z,27.98
2023-02-11T02:56:45.701Z,25.52
2023-02-11T03:01:20.813Z,27.42
2023-02-11T03:06:08.395Z,26.50
2023-02-11T03:10:33.412Z,27.10
2023-02-11T03:14:52.214Z,26.12
2023-02-11T03:19:37.825Z,25.98
2023-02-11T03:24:02.956Z,28.65
2023-02-11T03:28:34.713Z,25.90
2023-02-11T03:33:03.847Z,27.83
2023-02-11T03:37:22.536Z,27.52
2023-02-11T03:41:41.246Z,25.40
2023-02-11T03:45:58.957Z,26.05
2023-02-11T03:50:16.814Z,27.30
2023-02-11T03:54:33.205Z,29.15
2023-02-11T03:58:49.645Z,27.80
2023-02-11T04:03:06.661Z,27.58
2023-02-11T04:07:23.389Z,26.83
2023-02-11T04:11:39.752Z,27.87
2023-02-11T04:15:56.021Z,28.38
2023-02-11T04:20:12.660Z,25.55
2023-02-11T04:24:29.111Z,25.15
2023-02-11T04:28:45.364Z,24.40
2023-02-11T04:33:01.719Z,26.52
2023-02-11T04:37:17.968Z,25.60
2023-02-11T04:41:34.365Z,27.70
2023-02-11T04:45:50.790Z,24.87
2023-02-11T04:50:07.372Z,26.12
2023-02-11T04:54:23.684Z,26.58
2023-02-11T04:58:40.040Z,25.20
2023-02-11T05:02:56.299Z,26.52
2023-02-11T05:07:12.700Z,24.95
2023-02-11T05:11:30.062Z,23.52
2023-02-11T05:15:46.497Z,25.67
2023-02-11T05:20:02.776Z,25.30
2023-02-11T05:24:19.335Z,23.90
2023-02-11T05:28:35.840Z,22.77
2023-02-11T05:32:52.420Z,23.23
2023-02-11T05:37:08.746Z,24.25
2023-02-11T05:41:25.141Z,23.20
2023-02-11T05:45:41.435Z,23.38
2023-02-11T05:49:57.738Z,23.58
2023-02-11T05:54:14.135Z,24.40
2023-02-11T05:58:30.711Z,24.87
2023-02-11T06:02:47.039Z,24.83
2023-02-11T06:07:03.823Z,25.25
2023-02-11T06:11:20.528Z,24.92
2023-02-11T06:15:36.798Z,22.77
2023-02-11T06:19:53.082Z,23.95
2023-02-11T06:24:09.356Z,23.55
2023-02-11T06:28:25.626Z,22.50
2023-02-11T06:32:45.082Z,22.95
2023-02-11T06:37:01.919Z,23.08
2023-02-11T06:41:22.264Z,23.48
2023-02-11T06:45:38.483Z,22.83
2023-02-11T06:49:54.800Z,23.95
2023-02-11T06:54:13.088Z,24.12
2023-02-11T06:58:29.380Z,24.45
2023-02-11T07:02:45.611Z,26.75
2023-02-11T07:07:01.889Z,25.10
2023-02-11T07:11:24.426Z,25.85
2023-02-11T07:15:40.726Z,26.23
2023-02-11T07:19:57.025Z,25.70
2023-02-11T07:24:14.490Z,25.73
2023-02-11T07:28:30.933Z,24.85
2023-02-11T07:32:47.271Z,24.25
2023-02-11T07:37:03.551Z,24.63
2023-02-11T07:41:22.099Z,26.65
2023-02-11T07:45:39.875Z,26.67
2023-02-11T07:49:56.825Z,34.05
2023-02-11T07:54:13.110Z,27.77
2023-02-11T07:58:29.441Z,30.83
2023-02-11T08:02:45.645Z,24.98
2023-02-11T08:07:01.883Z,25.45
2023-02-11T08:11:23.485Z,23.05
2023-02-11T08:15:39.802Z,21.83
2023-02-11T08:19:56.195Z,23.08
2023-02-11T08:24:12.557Z,26.08
2023-02-11T08:28:28.767Z,24.00
2023-02-11T08:32:44.964Z,25.70
2023-02-11T08:37:01.167Z,24.83
2023-02-11T08:41:17.824Z,25.33
2023-02-11T08:45:34.098Z,23.35
2023-02-11T08:49:50.423Z,24.80
2023-02-11T08:54:09.669Z,28.23
2023-02-11T08:58:26.016Z,32.33
2023-02-11T09:02:42.233Z,31.08
2023-02-11T09:06:58.669Z,32.30
2023-02-11T09:11:15.303Z,27.77
2023-02-11T09:15:31.855Z,40.47
2023-02-11T09:19:48.058Z,24.20
2023-02-11T09:24:04.623Z,21.83
2023-02-11T09:28:20.895Z,22.40
2023-02-11T09:32:37.362Z,27.08
2023-02-11T09:36:53.734Z,24.65
2023-02-11T09:41:22.408Z,23.35
2023-02-11T09:45:38.769Z,22.62
2023-02-11T09:50:07.668Z,22.50
2023-02-11T09:54:37.832Z,21.98
2023-02-11T09:58:56.469Z,26.83
2023-02-11T10:03:35.615Z,26.30
2023-02-11T10:08:17.166Z,26.85
2023-02-11T10:13:00.566Z,23.08
2023-02-11T10:17:45.165Z,22.58
2023-02-11T10:22:18.901Z,21.05
2023-02-11T10:26:36.529Z,21.90
2023-02-11T10:31:18.208Z,21.73
2023-02-11T10:35:34.659Z,20.58
2023-02-11T10:39:50.929Z,21.70
2023-02-11T10:44:19.758Z,21.58
2023-02-11T10:48:42.030Z,23.45
2023-02-11T10:53:16.507Z,22.55
2023-02-11T10:57:35.760Z,21.92
2023-02-11T11:01:54.335Z,22.15
2023-02-11T11:06:10.632Z,20.60
2023-02-11T11:10:34.386Z,23.60
2023-02-11T11:14:56.873Z,23.92
2023-02-11T11:19:15.214Z,23.33
2023-02-11T11:23:32.065Z,22.67
2023-02-11T11:27:57.517Z,21.02
2023-02-11T11:32:32.700Z,21.30
2023-02-11T11:36:49.858Z,22.15
2023-02-11T11:41:15.182Z,21.30
2023-02-11T11:45:31.498Z,21.77
2023-02-11T11:50:11.297Z,21.58
2023-02-11T11:54:28.104Z,22.25
2023-02-11T11:58:44.415Z,21.75
2023-02-11T12:03:19.288Z,20.15
2023-02-11T12:07:50.368Z,20.48
2023-02-11T12:12:32.419Z,21.75
2023-02-11T12:17:04.074Z,20.35
2023-02-11T12:21:48.479Z,20.00
2023-02-11T12:26:24.935Z,20.48
2023-02-11T12:30:41.190Z,19.17
2023-02-11T12:35:17.055Z,18.27
2023-02-11T12:39:51.604Z,16.90
2023-02-11T12:44:13.276Z,20.15
2023-02-11T12:48:50.967Z,17.42
2023-02-11T12:53:21.240Z,18.48
2023-02-11T12:57:40.489Z,17.12
2023-02-11T13:01:58.547Z,17.23
2023-02-11T13:06:37.894Z,16.85
2023-02-11T13:11:04.229Z,15.95
2023-02-11T13:15:20.505Z,17.27
2023-02-11T13:19:44.305Z,15.95
2023-02-11T13:24:19.108Z,15.68
2023-02-11T13:28:45.199Z,14.55
2023-02-11T13:33:01.404Z,14.90
2023-02-11T13:37:38.622Z,15.95
2023-02-11T13:42:04.203Z,13.82
2023-02-11T13:46:20.567Z,15.60
2023-02-11T13:50:48.027Z,14.85
2023-02-11T13:55:24.034Z,15.00
2023-02-11T14:00:00.583Z,16.30
2023-02-11T14:04:44.925Z,14.35
2023-02-11T14:09:13.998Z,15.45
2023-02-11T14:13:32.684Z,15.77
2023-02-11T14:17:49.062Z,15.40
2023-02-11T14:22:19.780Z,17.52
2023-02-11T14:26:46.714Z,15.60
2023-02-11T14:31:13.387Z,15.00
2023-02-11T14:35:41.406Z,16.62
2023-02-11T14:40:01.644Z,16.60
2023-02-11T14:44:28.443Z,16.25
2023-02-11T14:48:47.986Z,15.65
2023-02-11T14:53:06.465Z,15.68
2023-02-11T14:57:22.740Z,17.30
2023-02-11T15:01:42.383Z,17.48
2023-02-11T15:06:19.352Z,17.05
2023-02-11T15:10:43.203Z,17.67
2023-02-11T15:15:00.720Z,19.58
2023-02-11T15:19:41.274Z,17.58
2023-02-11T15:24:20.135Z,17.58
2023-02-11T15:28:36.870Z,16.23
2023-02-11T15:33:05.724Z,18.62
2023-02-11T15:37:32.483Z,18.75
2023-02-11T15:41:48.785Z,19.30
2023-02-11T15:46:05.111Z,17.73
2023-02-11T15:50:30.481Z,19.15
2023-02-11T15:54:48.211Z,17.52
2023-02-11T15:59:35.548Z,17.35
2023-02-11T16:03:51.959Z,20.10
2023-02-11T16:08:22.045Z,17.83
2023-02-11T16:12:38.262Z,19.60
2023-02-11T16:17:04.648Z,17.73
2023-02-11T16:21:22.365Z,18.60
2023-02-11T16:25:38.665Z,19.25
2023-02-11T16:29:55.046Z,19.48
2023-02-11T16:34:25.308Z,19.40
2023-02-11T16:38:41.580Z,20.77
2023-02-11T16:42:57.723Z,21.73
2023-02-11T16:47:25.798Z,35.92
2023-02-11T16:51:42.591Z,20.67
2023-02-11T16:55:58.754Z,19.73
2023-02-11T17:00:17.491Z,18.58
2023-02-11T17:04:34.564Z,20.00
2023-02-11T17:08:50.812Z,19.75
2023-02-11T17:13:07.275Z,22.50
2023-02-11T17:17:24.091Z,21.87
2023-02-11T17:21:42.965Z,20.60
2023-02-11T17:25:59.191Z,21.33
2023-02-11T17:30:15.775Z,20.17
2023-02-11T17:34:32.601Z,20.65
2023-02-11T17:38:48.801Z,21.48
2023-02-11T17:43:05.253Z,19.23
2023-02-11T17:47:21.420Z,19.10
2023-02-11T17:51:39.241Z,20.50
2023-02-11T17:55:56.468Z,21.15
2023-02-11T18:00:14.191Z,22.67
2023-02-11T18:04:31.010Z,22.20
2023-02-11T18:08:47.763Z,21.75
2023-02-11T18:13:03.984Z,21.52
2023-02-11T18:17:21.393Z,22.05
2023-02-11T18:21:38.444Z,22.60
2023-02-11T18:25:54.660Z,20.77
2023-02-11T18:30:17.560Z,21.10
2023-02-11T18:34:33.882Z,22.05
2023-02-11T18:38:50.390Z,20.42
2023-02-11T18:43:06.785Z,21.48
2023-02-11T18:47:23.169Z,20.42
2023-02-11T18:51:40.099Z,19.67
2023-02-11T18:55:56.260Z,20.48
2023-02-11T19:00:13.160Z,21.15
2023-02-11T19:04:29.538Z,20.23
2023-02-11T19:08:46.065Z,23.12
2023-02-11T19:13:02.296Z,22.73
2023-02-11T19:17:18.551Z,19.95
2023-02-11T19:21:35.683Z,20.10
2023-02-11T19:25:52.181Z,20.12
2023-02-11T19:30:09.883Z,19.95
2023-02-11T19:34:26.359Z,20.23
2023-02-11T19:38:43.548Z,20.83
2023-02-11T19:42:59.807Z,20.92
2023-02-11T19:47:16.279Z,20.65
2023-02-11T19:51:33.971Z,21.65
2023-02-11T19:55:50.590Z,19.80
2023-02-11T20:00:08.069Z,19.35
2023-02-11T20:04:25.386Z,20.92
2023-02-11T20:08:41.795Z,20.65
2023-02-11T20:12:58.162Z,20.52
2023-02-11T20:17:14.380Z,20.10
2023-02-11T20:21:32.337Z,20.58
2023-02-11T20:25:48.534Z,21.12
2023-02-11T20:30:05.404Z,20.55
2023-02-11T20:34:22.454Z,20.65
2023-02-11T20:38:38.950Z,19.60
2023-02-11T20:42:56.884Z,21.95
2023-02-11T20:47:13.708Z,21.48
2023-02-11T20:51:34.284Z,22.75
2023-02-11T20:55:50.738Z,22.08
2023-02-11T21:00:07.944Z,21.83
2023-02-11T21:04:27.230Z,20.73
2023-02-11T21:08:44.860Z,20.10
2023-02-11T21:13:03.119Z,20.73
2023-02-11T21:17:20.481Z,19.50
2023-02-11T21:21:38.976Z,18.85
2023-02-11T21:25:55.946Z,18.30
2023-02-11T21:30:15.780Z,18.42
2023-02-11T21:34:32.002Z,25.92
2023-02-11T21:38:50.017Z,20.30
2023-02-11T21:43:06.361Z,18.73
2023-02-11T21:47:22.598Z,19.98
2023-02-11T21:51:39.553Z,19.20
2023-02-11T21:56:04.307Z,19.23
2023-02-11T22:00:20.758Z,20.33
2023-02-11T22:04:37.249Z,19.30
2023-02-11T22:08:54.990Z,19.73
2023-02-11T22:13:11.267Z,16.52
2023-02-11T22:17:28.236Z,17.25
2023-02-11T22:21:44.538Z,16.67
2023-02-11T22:26:05.658Z,17.35
2023-02-11T22:30:21.956Z,17.15
2023-02-11T22:34:38.279Z,15.90
2023-02-11T22:38:55.112Z,16.17
2023-02-11T22:43:11.626Z,16.55
2023-02-11T22:47:28.526Z,16.15
2023-02-11T22:51:44.944Z,17.92
2023-02-11T22:56:05.975Z,19.30
2023-02-11T23:00:24.473Z,17.23
2023-02-11T23:04:40.666Z,16.30
2023-02-11T23:08:57.046Z,15.15
2023-02-11T23:13:13.338Z,16.37
2023-02-11T23:17:30.662Z,17.00
2023-02-11T23:21:50.454Z,16.55
2023-02-11T23:26:09.518Z,17.30
2023-02-11T23:30:25.949Z,17.08
2023-02-11T23:34:42.136Z,15.27
2023-02-11T23:38:58.676Z,16.12
2023-02-11T23:43:14.897Z,15.32
2023-02-11T23:47:31.120Z,14.80
2023-02-11T23:51:47.476Z,14.25
2023-02-11T23:56:08.005Z,14.87
